.
WxDataArchive / Data Records for 2012-09-23
2012-09-22 September 2012 2012-09-24

Data Records for Sunday, 23 September 2012

Time	Temp	Chill	HIndex	Humid	Dewpt	 Wind 	HiWind	WindDir	Rain 	Barom 
-----	----	-----	------	-----	-----	------	------	-------	-----	----- 
00:00	47.4	47.4	47.4	84	42.8	0	0	---	0.00	30.129 
00:05	47.1	47.1	47.1	84	42.5	0	0	---	0.00	30.129 
00:10	47.0	47.0	47.0	85	42.7	0	0	---	0.00	30.129 
00:15	46.8	46.8	46.8	85	42.5	0	0	---	0.00	30.126 
00:20	46.7	46.7	46.7	85	42.4	0	0	---	0.00	30.126 
00:25	46.5	46.5	46.5	86	42.5	0	0	---	0.00	30.126 
00:30	46.4	46.4	46.4	86	42.4	0	0	---	0.00	30.128 
00:35	46.2	46.2	46.2	86	42.2	0	1	315	0.00	30.128 
00:40	46.2	46.2	46.2	86	42.2	0	1	315	0.00	30.128 
00:45	46.2	46.2	46.2	86	42.2	0	1	315	0.00	30.133 
00:50	46.1	46.1	46.1	86	42.1	0	1	315	0.00	30.133 
00:55	46.0	46.0	46.0	86	42.0	0	1	315	0.00	30.133 
01:00	45.8	45.8	45.8	86	41.9	0	0	---	0.00	30.131 
01:05	45.5	45.5	45.5	87	41.9	0	0	---	0.00	30.131 
01:10	45.4	45.4	45.4	87	41.8	0	0	---	0.00	30.131 
01:15	45.2	45.2	45.2	88	41.9	0	0	---	0.00	30.140 
01:20	45.2	45.2	45.2	88	41.9	0	0	---	0.00	30.140 
01:25	45.1	45.1	45.1	88	41.8	0	0	---	0.00	30.140 
01:30	45.1	45.1	45.1	88	41.8	0	0	---	0.00	30.136 
01:35	44.9	44.9	44.9	88	41.6	0	0	---	0.00	30.136 
01:40	44.8	44.8	44.8	88	41.5	0	0	---	0.00	30.136 
01:45	44.6	44.6	44.6	89	41.6	0	0	---	0.00	30.134 
01:50	44.5	44.5	44.5	89	41.5	0	0	---	0.00	30.134 
01:55	44.3	44.3	44.3	89	41.3	0	0	---	0.00	30.134 
02:00	44.1	44.1	44.1	89	41.1	0	0	---	0.00	30.135 
02:05	43.9	43.9	43.9	89	40.9	0	0	---	0.00	30.135 
02:10	43.8	43.8	43.8	89	40.8	0	0	---	0.00	30.135 
02:15	43.8	43.8	43.8	90	41.1	0	0	---	0.00	30.139 
02:20	43.8	43.8	43.8	90	41.1	0	0	---	0.00	30.139 
02:25	43.8	43.8	43.8	90	41.1	0	0	---	0.00	30.139 
02:30	43.8	43.8	43.8	90	41.1	0	0	---	0.00	30.139 
02:35	43.8	43.8	43.8	90	41.1	0	0	---	0.00	30.139 
02:40	43.8	43.8	43.8	90	41.1	0	0	---	0.00	30.139 
02:45	43.8	43.8	43.8	90	41.1	0	0	---	0.00	30.138 
02:50	43.6	43.6	43.6	90	40.9	0	0	---	0.00	30.138 
02:55	43.6	43.6	43.6	90	40.9	0	0	---	0.00	30.138 
03:00	43.5	43.5	43.5	91	41.0	0	0	---	0.00	30.137 
03:05	43.3	43.3	43.3	91	40.9	0	0	---	0.00	30.137 
03:10	43.2	43.2	43.2	91	40.8	0	0	---	0.00	30.137 
03:15	43.1	43.1	43.1	91	40.7	0	0	---	0.00	30.141 
03:20	42.9	42.9	42.9	91	40.5	0	0	---	0.00	30.141 
03:25	42.8	42.8	42.8	91	40.4	0	0	---	0.00	30.141 
03:30	42.5	42.5	42.5	91	40.1	0	0	---	0.00	30.142 
03:35	42.5	42.5	42.5	91	40.1	0	0	---	0.00	30.142 
03:40	42.3	42.3	42.3	91	39.9	0	0	---	0.00	30.142 
03:45	42.3	42.3	42.3	91	39.9	0	0	---	0.00	30.140 
03:50	42.2	42.2	42.2	91	39.8	0	0	---	0.00	30.140 
03:55	42.2	42.2	42.2	91	39.8	0	0	---	0.00	30.140 
04:00	42.3	42.3	42.3	92	40.1	0	0	---	0.00	30.142 
04:05	42.5	42.5	42.5	92	40.3	0	0	---	0.00	30.142 
04:10	42.5	42.5	42.5	92	40.3	0	0	---	0.00	30.142 
04:15	42.5	42.5	42.5	92	40.3	0	0	---	0.00	30.140 
04:20	42.5	42.5	42.5	91	40.1	0	0	---	0.00	30.140 
04:25	42.3	42.3	42.3	91	39.9	0	0	---	0.00	30.140 
04:30	42.3	42.3	42.3	91	39.9	0	0	---	0.00	30.142 
04:35	42.3	42.3	42.3	91	39.9	0	0	---	0.00	30.142 
04:40	42.3	42.3	42.3	91	39.9	0	0	---	0.00	30.142 
04:45	42.3	42.3	42.3	91	39.9	0	1	315	0.00	30.140 
04:50	42.3	42.3	42.3	91	39.9	0	0	---	0.00	30.140 
04:55	42.3	42.3	42.3	91	39.9	0	0	---	0.00	30.140 
05:00	42.2	42.2	42.2	91	39.8	0	0	---	0.00	30.143 
05:05	42.3	42.3	42.3	91	39.9	0	1	315	0.00	30.143 
05:10	42.3	42.3	42.3	91	39.9	0	1	315	0.00	30.143 
05:15	42.3	42.3	42.3	90	39.6	0	0	---	0.00	30.142 
05:20	42.3	42.3	42.3	90	39.6	0	0	---	0.00	30.142 
05:25	42.3	42.3	42.3	90	39.6	0	0	---	0.00	30.142 
05:30	42.3	42.3	42.3	90	39.6	0	0	---	0.00	30.150 
05:35	42.2	42.2	42.2	90	39.5	0	0	---	0.00	30.150 
05:40	42.1	42.1	42.1	90	39.4	0	0	---	0.00	30.150 
05:45	41.9	41.9	41.9	90	39.2	0	0	---	0.00	30.154 
05:50	41.8	41.8	41.8	90	39.1	0	0	---	0.00	30.154 
05:55	41.6	41.6	41.6	90	38.9	0	0	---	0.00	30.154 
06:00	41.3	41.3	41.3	90	38.6	0	0	---	0.00	30.156 
06:05	41.2	41.2	41.2	90	38.5	0	0	---	0.00	30.156 
06:10	41.1	41.1	41.1	90	38.4	0	0	---	0.00	30.156 
06:15	40.9	40.9	40.9	90	38.2	0	0	---	0.00	30.160 
06:20	40.8	40.8	40.8	90	38.1	0	0	---	0.00	30.160 
06:25	40.6	40.6	40.6	90	37.9	0	0	---	0.00	30.160 
06:30	40.6	40.6	40.6	91	38.2	0	0	---	0.00	30.165 
06:35	40.6	40.6	40.6	91	38.2	0	0	---	0.00	30.165 
06:40	40.6	40.6	40.6	91	38.2	0	0	---	0.00	30.165 
06:45	40.6	40.6	40.6	91	38.2	0	0	---	0.00	30.169 
06:50	40.5	40.5	40.5	91	38.1	0	0	---	0.00	30.169 
06:55	40.3	40.3	40.3	91	37.9	0	0	---	0.00	30.169 
07:00	40.2	40.2	40.2	91	37.8	0	0	---	0.00	30.170 
07:05	40.1	40.1	40.1	91	37.7	0	0	---	0.00	30.170 
07:10	39.9	39.9	39.9	91	37.5	0	0	---	0.00	30.170 
07:15	39.8	39.8	39.8	91	37.4	0	0	---	0.00	30.173 
07:20	39.6	39.6	39.6	91	37.2	0	0	---	0.00	30.173 
07:25	39.5	39.5	39.5	91	37.1	0	0	---	0.00	30.173 
07:30	39.3	39.3	39.3	91	36.9	0	0	---	0.00	30.176 
07:35	39.3	39.3	39.3	92	37.2	0	0	---	0.00	30.176 
07:40	39.2	39.2	39.2	92	37.1	0	0	---	0.00	30.176 
07:45	39.2	39.2	39.2	92	37.1	0	0	---	0.00	30.183 
07:50	39.2	39.2	39.2	92	37.1	0	0	---	0.00	30.183 
07:55	39.3	39.3	39.3	92	37.2	0	0	---	0.00	30.183 
08:00	39.6	39.6	39.6	92	37.5	0	0	---	0.00	30.186 
08:05	39.8	39.8	39.8	93	37.9	0	0	---	0.00	30.186 
08:10	40.1	40.1	40.1	93	38.2	0	0	---	0.00	30.186 
08:15	40.3	40.3	40.3	93	38.4	0	0	---	0.00	30.190 
08:20	40.8	40.8	40.8	93	38.9	0	0	---	0.00	30.190 
08:25	41.2	41.2	41.2	93	39.3	0	1	315	0.00	30.190 
08:30	41.6	41.6	41.6	93	39.7	0	1	315	0.00	30.187 
08:35	42.1	42.1	42.1	93	40.2	0	1	315	0.00	30.187 
08:40	42.5	42.5	42.5	93	40.6	0	1	315	0.00	30.187 
08:45	42.9	42.9	42.9	92	40.7	0	1	315	0.00	30.187 
08:50	43.3	43.3	43.3	92	41.1	0	1	315	0.00	30.187 
08:55	43.9	43.9	43.9	91	41.4	0	2	315	0.00	30.187 
09:00	44.3	44.3	44.3	90	41.6	0	2	315	0.00	30.190 
09:05	44.6	44.6	44.6	88	41.3	0	2	315	0.00	30.190 
09:10	45.1	45.1	45.1	87	41.5	0	2	315	0.00	30.190 
09:15	45.5	45.5	45.5	85	41.3	0	3	315	0.00	30.194 
09:20	46.0	46.0	46.0	84	41.4	0	2	315	0.00	30.194 
09:25	46.4	46.4	46.4	83	41.5	0	3	315	0.00	30.194 
09:30	46.8	46.8	46.8	81	41.3	0	2	315	0.00	30.199 
09:35	47.6	47.6	47.6	80	41.7	0	1	315	0.00	30.199 
09:40	48.2	48.2	48.2	79	42.0	0	2	315	0.00	30.199 
09:45	48.8	48.8	48.8	77	41.9	0	3	315	0.00	30.197 
09:50	49.2	49.2	49.2	75	41.6	1	3	315	0.00	30.197 
09:55	50.1	50.1	50.1	71	41.1	1	2	315	0.00	30.197 
10:00	50.7	50.7	50.7	70	41.3	1	4	315	0.00	30.196 
10:05	51.1	51.1	51.1	69	41.3	1	5	270	0.00	30.196 
10:10	51.6	51.6	51.6	67	41.0	2	4	270	0.00	30.196 
10:15	52.0	52.0	52.0	66	41.0	2	5	270	0.00	30.192 
10:20	52.5	52.5	52.5	64	40.7	1	4	292	0.00	30.192 
10:25	52.9	52.9	52.9	65	41.5	2	3	315	0.00	30.192 
10:30	53.3	53.3	53.3	62	40.6	2	4	270	0.00	30.192 
10:35	53.5	53.5	53.5	61	40.4	2	5	292	0.00	30.192 
10:40	53.9	53.9	53.9	59	39.9	3	5	270	0.00	30.192 
10:45	54.2	54.2	54.2	58	39.7	2	4	270	0.00	30.193 
10:50	54.7	54.7	54.7	59	40.7	1	3	270	0.00	30.193 
10:55	55.1	55.1	55.1	57	40.1	2	4	315	0.00	30.193 
11:00	55.3	55.3	55.3	57	40.3	2	5	270	0.00	30.191 
11:05	55.6	55.6	55.6	54	39.2	2	5	270	0.00	30.191 
11:10	55.7	55.7	55.7	54	39.3	1	3	338	0.00	30.191 
11:15	56.3	56.3	56.3	51	38.4	2	5	248	0.00	30.194 
11:20	56.5	56.5	56.5	51	38.6	2	5	292	0.00	30.194 
11:25	56.3	56.3	56.3	48	36.9	2	5	270	0.00	30.194 
11:30	55.7	55.7	55.7	47	35.8	3	6	292	0.00	30.194 
11:35	55.9	55.9	55.9	46	35.4	3	5	315	0.00	30.194 
11:40	55.4	55.4	55.4	46	35.0	2	4	315	0.00	30.194 
11:45	55.7	55.7	55.7	49	36.8	2	4	292	0.00	30.194 
11:50	56.7	56.7	56.7	46	36.2	2	5	292	0.00	30.194 
11:55	57.0	57.0	57.0	47	37.0	1	4	270	0.00	30.194 
12:00	57.0	57.0	57.0	44	35.3	3	6	270	0.00	30.193 
12:05	57.5	57.5	57.5	47	37.4	1	4	270	0.00	30.193 
12:10	58.0	58.0	58.0	44	36.2	2	5	270	0.00	30.193 
12:15	57.8	57.8	57.8	45	36.6	2	5	292	0.00	30.192 
12:20	57.2	57.2	57.2	44	35.5	2	7	270	0.00	30.192 
12:25	56.2	56.2	56.2	44	34.6	2	7	270	0.00	30.192 
12:30	55.7	55.7	55.7	46	35.2	1	4	270	0.00	30.194 
12:35	57.0	57.0	57.0	45	35.9	1	4	270	0.00	30.194 
12:40	57.6	57.6	57.6	43	35.3	2	5	292	0.00	30.194 
12:45	57.5	57.5	57.5	45	36.3	2	4	292	0.00	30.189 
12:50	58.1	58.1	58.1	44	36.3	2	5	292	0.00	30.189 
12:55	58.7	58.7	58.7	45	37.4	2	5	270	0.00	30.189 
13:00	58.9	58.9	58.9	44	37.0	2	5	270	0.00	30.187 
13:05	59.3	59.3	59.3	43	36.8	1	5	270	0.00	30.187 
13:10	59.0	59.0	59.0	42	35.9	1	3	292	0.00	30.187 
13:15	58.4	58.4	58.4	41	34.8	2	6	270	0.00	30.191 
13:20	58.1	58.1	58.1	44	36.3	2	4	270	0.00	30.191 
13:25	58.3	58.3	58.3	42	35.3	3	6	270	0.00	30.191 
13:30	58.0	58.0	58.0	43	35.6	1	4	248	0.00	30.190 
13:35	57.5	57.5	57.5	43	35.2	1	4	248	0.00	30.190 
13:40	57.6	57.6	57.6	48	38.1	1	3	248	0.00	30.190 
13:45	58.3	58.3	58.3	43	35.9	1	3	248	0.00	30.189 
13:50	58.1	58.1	58.1	43	35.7	1	5	248	0.00	30.189 
13:55	58.1	58.1	58.1	43	35.7	1	3	270	0.00	30.189 
14:00	58.6	58.6	58.6	45	37.3	1	4	270	0.00	30.187 
14:05	58.9	58.9	58.9	43	36.4	2	5	270	0.00	30.187 
14:10	58.9	58.9	58.9	42	35.9	1	4	270	0.00	30.187 
14:15	58.1	58.1	58.1	43	35.7	2	4	270	0.00	30.188 
14:20	57.6	57.6	57.6	45	36.4	2	5	270	0.00	30.188 
14:25	57.2	57.2	57.2	45	36.1	2	5	270	0.00	30.188 
14:30	56.9	56.9	56.9	44	35.2	3	5	270	0.00	30.189 
14:35	57.0	57.0	57.0	45	35.9	1	3	292	0.00	30.189 
14:40	57.5	57.5	57.5	46	36.9	1	3	315	0.00	30.189 
14:45	58.3	58.3	58.3	46	37.6	2	4	270	0.00	30.184 
14:50	58.3	58.3	58.3	44	36.5	2	5	292	0.00	30.184 
14:55	57.6	57.6	57.6	46	37.0	2	5	292	0.00	30.184 
15:00	57.0	57.0	57.0	48	37.5	1	3	338	0.00	30.193 
15:05	56.6	56.6	56.6	49	37.7	2	6	292	0.00	30.193 
15:10	56.6	56.6	56.6	49	37.7	1	3	292	0.00	30.193 
15:15	57.0	57.0	57.0	49	38.0	2	4	292	0.00	30.196 
15:20	57.6	57.6	57.6	45	36.4	2	5	248	0.00	30.196 
15:25	57.2	57.2	57.2	47	37.2	2	6	270	0.00	30.196 
15:30	56.9	56.9	56.9	46	36.3	2	4	292	0.00	30.196 
15:35	57.2	57.2	57.2	46	36.6	1	4	315	0.00	30.196 
15:40	57.0	57.0	57.0	44	35.3	1	4	270	0.00	30.196 
15:45	57.0	57.0	57.0	43	34.7	2	4	315	0.00	30.193 
15:50	57.6	57.6	57.6	44	35.8	2	4	315	0.00	30.193 
15:55	58.1	58.1	58.1	41	34.5	3	7	270	0.00	30.193 
16:00	57.6	57.6	57.6	41	34.1	3	5	292	0.00	30.194 
16:05	57.2	57.2	57.2	43	34.9	1	4	270	0.00	30.194 
16:10	56.9	56.9	56.9	43	34.6	1	3	270	0.00	30.194 
16:15	56.9	56.9	56.9	44	35.2	1	4	270	0.00	30.194 
16:20	56.9	56.9	56.9	43	34.6	1	4	270	0.00	30.194 
16:25	57.5	57.5	57.5	42	34.6	2	5	292	0.00	30.194 
16:30	57.5	57.5	57.5	43	35.2	2	4	292	0.00	30.190 
16:35	57.3	57.3	57.3	42	34.4	2	4	270	0.00	30.190 
16:40	56.9	56.9	56.9	43	34.6	1	3	270	0.00	30.190 
16:45	56.5	56.5	56.5	43	34.3	1	4	292	0.00	30.192 
16:50	56.5	56.5	56.5	45	35.4	1	4	292	0.00	30.192 
16:55	56.9	56.9	56.9	43	34.6	3	5	315	0.00	30.192 
17:00	56.7	56.7	56.7	43	34.5	2	4	292	0.00	30.192 
17:05	57.2	57.2	57.2	43	34.9	2	6	292	0.00	30.192 
17:10	57.0	57.0	57.0	43	34.7	2	5	270	0.00	30.192 
17:15	57.2	57.2	57.2	42	34.3	2	5	270	0.00	30.193 
17:20	57.3	57.3	57.3	40	33.2	3	5	270	0.00	30.193 
17:25	57.5	57.5	57.5	40	33.4	2	4	292	0.00	30.193 
17:30	57.6	57.6	57.6	40	33.5	2	6	292	0.00	30.195 
17:35	57.8	57.8	57.8	41	34.3	1	5	292	0.00	30.195 
17:40	57.3	57.3	57.3	39	32.6	2	5	292	0.00	30.195 
17:45	56.9	56.9	56.9	40	32.8	2	5	270	0.00	30.198 
17:50	56.9	56.9	56.9	39	32.2	2	4	315	0.00	30.198 
17:55	57.0	57.0	57.0	40	32.9	2	5	270	0.00	30.198 
18:00	57.2	57.2	57.2	40	33.1	1	3	292	0.00	30.197 
18:05	57.0	57.0	57.0	40	32.9	2	7	292	0.00	30.197 
18:10	56.7	56.7	56.7	40	32.7	2	5	315	0.00	30.197 
18:15	56.6	56.6	56.6	43	34.4	1	5	270	0.00	30.200 
18:20	56.5	56.5	56.5	41	33.1	2	5	292	0.00	30.200 
18:25	56.0	56.0	56.0	41	32.6	3	5	315	0.00	30.200 
18:30	55.7	55.7	55.7	42	33.0	2	6	270	0.00	30.204 
18:35	55.6	55.6	55.6	42	32.9	1	4	292	0.00	30.204 
18:40	55.6	55.6	55.6	43	33.5	1	3	292	0.00	30.204 
18:45	55.4	55.4	55.4	42	32.7	2	4	315	0.00	30.210 
18:50	55.1	55.1	55.1	42	32.4	2	5	270	0.00	30.210 
18:55	55.0	55.0	55.0	42	32.3	1	4	315	0.00	30.210 
19:00	54.7	54.7	54.7	43	32.6	1	5	292	0.00	30.210 
19:05	54.5	54.5	54.5	44	33.0	1	5	292	0.00	30.210 
19:10	54.1	54.1	54.1	45	33.2	1	3	270	0.00	30.210 
19:15	53.6	53.6	53.6	45	32.8	1	4	338	0.00	30.213 
19:20	53.3	53.3	53.3	46	33.1	1	3	270	0.00	30.213 
19:25	53.1	53.1	53.1	45	32.3	1	3	270	0.00	30.213 
19:30	52.9	52.9	52.9	46	32.7	0	2	270	0.00	30.218 
19:35	52.6	52.6	52.6	46	32.4	0	1	270	0.00	30.218 
19:40	52.2	52.2	52.2	48	33.1	0	1	270	0.00	30.218 
19:45	51.9	51.9	51.9	49	33.3	0	1	270	0.00	30.219 
19:50	51.6	51.6	51.6	49	33.1	0	1	270	0.00	30.219 
19:55	51.1	51.1	51.1	50	33.1	0	1	270	0.00	30.219 
20:00	50.8	50.8	50.8	51	33.3	0	3	270	0.00	30.220 
20:05	50.5	50.5	50.5	51	33.1	0	1	270	0.00	30.220 
20:10	50.2	50.2	50.2	52	33.3	0	0	---	0.00	30.220 
20:15	49.9	49.9	49.9	54	33.9	0	0	---	0.00	30.219 
20:20	49.6	49.6	49.6	54	33.6	0	0	---	0.00	30.219 
20:25	49.4	49.4	49.4	54	33.5	0	0	---	0.00	30.219 
20:30	49.1	49.1	49.1	55	33.6	0	0	---	0.00	30.231 
20:35	48.8	48.8	48.8	56	33.8	0	0	---	0.00	30.231 
20:40	48.5	48.5	48.5	57	34.0	0	0	---	0.00	30.231 
20:45	48.0	48.0	48.0	58	33.9	0	0	---	0.00	30.233 
20:50	47.7	47.7	47.7	59	34.1	0	0	---	0.00	30.233 
20:55	47.3	47.3	47.3	61	34.5	0	0	---	0.00	30.233 
21:00	46.8	46.8	46.8	61	34.1	0	0	---	0.00	30.236 
21:05	46.4	46.4	46.4	63	34.5	0	0	---	0.00	30.236 
21:10	46.1	46.1	46.1	64	34.6	0	0	---	0.00	30.236 
21:15	45.7	45.7	45.7	65	34.6	0	0	---	0.00	30.233 
21:20	45.4	45.4	45.4	67	35.1	0	0	---	0.00	30.233 
21:25	45.1	45.1	45.1	68	35.2	0	0	---	0.00	30.233 
21:30	44.8	44.8	44.8	69	35.3	0	0	---	0.00	30.238 
21:35	44.6	44.6	44.6	70	35.4	0	0	---	0.00	30.238 
21:40	44.3	44.3	44.3	71	35.5	0	0	---	0.00	30.238 
21:45	44.1	44.1	44.1	72	35.7	0	0	---	0.00	30.241 
21:50	43.8	43.8	43.8	73	35.7	0	0	---	0.00	30.241 
21:55	43.5	43.5	43.5	73	35.4	0	0	---	0.00	30.241 
22:00	43.3	43.3	43.3	74	35.6	0	0	---	0.00	30.245 
22:05	43.2	43.2	43.2	74	35.5	0	0	---	0.00	30.245 
22:10	43.1	43.1	43.1	75	35.7	0	0	---	0.00	30.245 
22:15	42.8	42.8	42.8	76	35.8	0	0	---	0.00	30.242 
22:20	42.6	42.6	42.6	76	35.6	0	0	---	0.00	30.242 
22:25	42.5	42.5	42.5	77	35.8	0	0	---	0.00	30.242 
22:30	42.2	42.2	42.2	77	35.5	0	0	---	0.00	30.240 
22:35	42.1	42.1	42.1	77	35.4	0	0	---	0.00	30.240 
22:40	41.9	41.9	41.9	77	35.2	0	0	---	0.00	30.240 
22:45	41.6	41.6	41.6	78	35.3	0	0	---	0.00	30.241 
22:50	41.5	41.5	41.5	79	35.5	0	0	---	0.00	30.241 
22:55	41.2	41.2	41.2	80	35.5	0	0	---	0.00	30.241 
23:00	41.1	41.1	41.1	80	35.4	0	0	---	0.00	30.245 
23:05	40.8	40.8	40.8	81	35.4	0	0	---	0.00	30.245 
23:10	40.6	40.6	40.6	81	35.2	0	0	---	0.00	30.245 
23:15	40.5	40.5	40.5	82	35.4	0	0	---	0.00	30.247 
23:20	40.3	40.3	40.3	83	35.6	0	0	---	0.00	30.247 
23:25	40.2	40.2	40.2	83	35.5	0	0	---	0.00	30.247 
23:30	40.1	40.1	40.1	83	35.4	0	0	---	0.00	30.252 
23:35	39.9	39.9	39.9	84	35.5	0	0	---	0.00	30.252 
23:40	39.8	39.8	39.8	84	35.4	0	0	---	0.00	30.252 
23:45	39.6	39.6	39.6	84	35.2	0	0	---	0.00	30.254 
23:50	39.5	39.5	39.5	85	35.4	0	0	---	0.00	30.254 
23:55	39.3	39.3	39.3	85	35.2	0	0	---	0.00	30.254 

CoCoRaHS
IN-AL-39
A2 Web Hosting
Creative Commons License
GoDaddy
search engine by freefind advanced

loaded 2018-11-17 06:44:23 • last modified 2010-11-18 10:43:29
Privacy PolicyDisclaimer
• wx.awcolley.com is powered by PmWiki v.2002016 •
• all content (unless otherwise noted) © 2018 A W Colley